Date,TemperatureHighF,TemperatureAvgF,TemperatureLowF,DewpointHighF,DewpointAvgF,DewpointLowF,HumidityHigh,HumidityAvg,HumidityLow,PressureMaxIn,PressureMinIn,WindSpeedMaxMPH,WindSpeedAvgMPH,GustSpeedMaxMPH,PrecipitationSumIn
2013-1-1,42.5,34.4,30.4,27.0,23.2,20.4,75,64,51,30.47,30.36,22,2,22,0.94
2013-1-2,41.8,35.3,33.2,24.7,22.3,20.8,64,59,48,30.36,30.22,20,2,20,0.00
2013-1-3,40.2,35.4,32.7,31.8,22.9,19.9,82,61,47,30.27,30.16,23,2,23,0.00
2013-1-4,47.0,38.4,35.3,37.7,31.9,25.3,91,78,64,30.37,30.19,17,1,17,0.01
2013-1-5,37.8,36.1,34.9,32.5,28.3,25.1,86,73,66,30.25,30.17,19,1,19,0.02
2013-1-6,43.2,38.9,34.9,41.0,36.1,32.1,92,90,87,30.26,30.07,12,0,12,0.21
2013-1-7,52.0,48.1,43.2,48.0,44.8,41.0,93,88,84,30.22,29.98,22,4,22,0.14
2013-1-8,54.4,50.8,45.8,48.1,46.0,42.8,93,84,76,30.21,29.90,24,4,24,0.10
2013-1-9,51.7,43.7,36.2,45.0,39.2,33.8,92,85,70,29.99,29.70,24,3,24,0.15
2013-1-10,38.5,36.6,34.0,35.7,34.0,31.7,92,90,85,30.11,29.99,11,1,0,0.12
2013-1-11,41.6,34.2,29.8,33.6,30.1,26.5,93,85,61,30.32,30.11,6,0,0,0.00
2013-1-12,38.6,30.6,26.1,31.3,26.8,23.8,92,86,69,30.42,30.31,7,0,0,0.00
2013-1-13,37.0,31.3,28.7,27.5,25.8,23.3,91,80,63,30.51,30.41,6,0,0,0.00
2013-1-14,33.5,31.3,29.1,31.4,27.5,24.6,92,86,80,30.58,30.50,6,0,0,0.04
2013-1-15,37.8,35.6,33.5,34.7,32.8,31.4,93,90,85,30.68,30.58,6,0,0,0.02
2013-1-16,37.0,35.6,34.6,33.2,32.3,31.7,90,88,84,30.67,30.50,4,0,0,0.00
2013-1-17,47.6,36.9,30.9,33.2,29.8,26.0,91,77,53,30.50,30.32,7,0,0,0.00
2013-1-18,44.9,32.2,26.3,33.2,27.7,23.8,92,84,63,30.34,30.27,5,0,0,0.00
2013-1-19,44.6,32.0,25.4,34.7,28.5,23.4,93,87,65,30.36,30.28,4,0,0,0.00
2013-1-20,44.2,32.6,25.8,34.3,26.2,23.4,93,79,55,30.38,30.25,14,1,14,0.00
2013-1-21,46.4,32.3,25.1,30.6,26.0,23.1,92,79,49,30.30,30.17,11,0,0,0.00
2013-1-22,43.2,32.8,25.0,26.4,23.0,21.1,88,68,46,30.18,29.95,21,1,21,0.00
2013-1-23,35.6,35.1,34.0,33.5,30.9,22.4,92,85,62,30.22,29.97,10,0,0,0.17
2013-1-24,44.8,38.8,35.3,40.9,36.3,33.4,93,90,81,30.25,30.11,12,0,12,0.27
2013-1-25,50.5,45.3,41.9,48.8,43.4,40.0,95,93,89,30.14,29.96,8,0,0,0.13
2013-1-26,46.2,42.6,39.8,41.6,39.0,36.3,93,87,76,30.09,29.94,14,2,14,0.04
2013-1-27,42.3,40.5,39.2,39.1,37.5,36.1,91,89,82,30.16,30.05,15,2,15,0.12
2013-1-28,43.3,41.6,39.8,41.4,39.5,37.4,93,92,91,30.22,30.08,11,2,0,0.57
2013-1-29,46.2,44.5,42.6,44.6,42.6,40.7,94,93,88,30.47,30.21,13,2,13,0.37
2013-1-30,49.1,46.0,43.3,45.5,43.1,40.3,92,90,86,30.47,30.42,19,3,19,0.12
2013-1-31,52.9,48.2,44.9,45.8,44.3,43.0,94,86,71,30.45,30.33,7,1,0,0.01